createdAt,value
2023-04-20T00:00:24.436Z,26.64
2023-04-20T00:01:27.409Z,30.02
2023-04-20T00:02:30.482Z,29.17
2023-04-20T00:03:36.489Z,28.97
2023-04-20T00:04:39.457Z,29.02
2023-04-20T00:05:42.693Z,26.79
2023-04-20T00:06:45.379Z,26.19
2023-04-20T00:07:48.041Z,25.99
2023-04-20T00:08:50.809Z,26.13
2023-04-20T00:09:53.478Z,25.18
2023-04-20T00:10:55.948Z,24.52
2023-04-20T00:11:58.923Z,26.85
2023-04-20T00:13:01.914Z,26.82
2023-04-20T00:14:04.878Z,27.68
2023-04-20T00:15:07.749Z,25.55
2023-04-20T00:16:10.625Z,24.02
2023-04-20T00:17:13.715Z,25.17
2023-04-20T00:18:16.591Z,26.28
2023-04-20T00:19:19.511Z,26.33
2023-04-20T00:20:22.327Z,24.93
2023-04-20T00:21:25.203Z,24.81
2023-04-20T00:22:28.218Z,24.86
2023-04-20T00:23:30.951Z,26.87
2023-04-20T00:24:33.831Z,25.42
2023-04-20T00:25:36.709Z,27.15
2023-04-20T00:26:39.577Z,25.92
2023-04-20T00:27:42.655Z,27.05
2023-04-20T00:28:45.424Z,25.82
2023-04-20T00:29:48.199Z,23.25
2023-04-20T00:30:51.114Z,27.18
2023-04-20T00:31:53.738Z,25.52
2023-04-20T00:32:56.342Z,28.83
2023-04-20T00:33:58.986Z,27.81
2023-04-20T00:35:01.692Z,26.97
2023-04-20T00:36:04.317Z,24.18
2023-04-20T00:37:07.015Z,24.43
2023-04-20T00:38:10.070Z,24.06
2023-04-20T00:39:12.839Z,25.22
2023-04-20T00:40:15.612Z,26.48
2023-04-20T00:41:18.487Z,25.13
2023-04-20T00:42:21.253Z,26.15
2023-04-20T00:43:24.355Z,28.06
2023-04-20T00:44:27.205Z,29.08
2023-04-20T00:45:30.089Z,24.24
2023-04-20T00:46:33.029Z,26.91
2023-04-20T00:47:35.893Z,26.98
2023-04-20T00:48:38.536Z,27.63
2023-04-20T00:49:41.280Z,27.81
2023-04-20T00:50:43.949Z,29.07
2023-04-20T00:51:46.824Z,29.45
2023-04-20T00:52:49.700Z,27.51
2023-04-20T00:53:52.876Z,27.82
2023-04-20T00:54:55.452Z,30.91
2023-04-20T00:55:58.115Z,27.94
2023-04-20T00:57:01.013Z,30.16
2023-04-20T00:58:03.965Z,30.92
2023-04-20T00:59:07.045Z,29.01
2023-04-20T01:00:09.715Z,30.39
2023-04-20T01:01:12.632Z,37.49
2023-04-20T01:02:15.471Z,35.11
2023-04-20T01:03:18.692Z,30.75
2023-04-20T01:04:22.018Z,30.92
2023-04-20T01:05:25.014Z,28.99
2023-04-20T01:06:27.888Z,30.81
2023-04-20T01:07:30.659Z,27.68
2023-04-20T01:08:33.531Z,29.56
2023-04-20T01:09:36.611Z,32.06
2023-04-20T01:10:39.381Z,27.28
2023-04-20T01:11:42.153Z,28.88
2023-04-20T01:12:45.029Z,31.19
2023-04-20T01:13:47.906Z,30.54
2023-04-20T01:14:50.780Z,28.07
2023-04-20T01:15:54.095Z,26.31
2023-04-20T01:16:56.936Z,25.76
2023-04-20T01:17:59.765Z,27.98
2023-04-20T01:19:02.585Z,24.44
2023-04-20T01:20:05.560Z,23.89
2023-04-20T01:21:08.434Z,26.96
2023-04-20T01:22:11.312Z,25.57
2023-04-20T01:23:13.982Z,28.68
2023-04-20T01:24:16.662Z,28.15
2023-04-20T01:25:19.326Z,23.70
2023-04-20T01:26:22.201Z,28.02
2023-04-20T01:27:24.765Z,26.14
2023-04-20T01:28:27.546Z,30.43
2023-04-20T01:29:30.326Z,29.42
2023-04-20T01:30:32.986Z,30.72
2023-04-20T01:31:35.794Z,26.30
2023-04-20T01:32:38.450Z,28.05
2023-04-20T01:33:41.921Z,31.65
2023-04-20T01:34:45.213Z,32.42
2023-04-20T01:35:48.172Z,33.07
2023-04-20T01:36:50.949Z,28.32
2023-04-20T01:37:53.723Z,27.60
2023-04-20T01:38:56.414Z,28.92
2023-04-20T01:39:59.118Z,25.95
2023-04-20T01:41:01.741Z,30.37
2023-04-20T01:42:04.423Z,28.08
2023-04-20T01:43:07.072Z,24.38
2023-04-20T01:44:09.628Z,32.31
2023-04-20T01:45:12.326Z,23.60
2023-04-20T01:46:15.165Z,29.27
2023-04-20T01:47:17.744Z,24.38
2023-04-20T01:48:20.618Z,27.02
2023-04-20T01:49:23.189Z,25.85
2023-04-20T01:50:25.862Z,29.06
2023-04-20T01:51:28.634Z,32.49
2023-04-20T01:52:31.507Z,22.87
2023-04-20T01:53:34.178Z,24.23
2023-04-20T01:54:36.842Z,27.72
2023-04-20T01:55:39.514Z,27.62
2023-04-20T01:56:42.085Z,25.71
2023-04-20T01:57:48.230Z,24.71
2023-04-20T01:58:50.906Z,20.47
2023-04-20T01:59:53.780Z,21.65
2023-04-20T02:00:56.694Z,25.39
2023-04-20T02:01:59.385Z,21.58
2023-04-20T02:03:02.376Z,21.55
2023-04-20T02:04:05.081Z,23.24
2023-04-20T02:05:08.151Z,21.39
2023-04-20T02:06:11.142Z,22.28
2023-04-20T02:07:13.693Z,23.02
2023-04-20T02:08:16.363Z,23.13
2023-04-20T02:09:19.241Z,21.42
2023-04-20T02:10:22.115Z,21.70
2023-04-20T02:11:24.783Z,21.03
2023-04-20T02:12:27.358Z,19.60
2023-04-20T02:13:30.026Z,21.34
2023-04-20T02:14:32.702Z,18.51
2023-04-20T02:15:35.261Z,24.86
2023-04-20T02:16:38.061Z,18.52
2023-04-20T02:17:40.676Z,26.24
2023-04-20T02:18:43.374Z,22.76
2023-04-20T02:19:46.043Z,25.57
2023-04-20T02:20:48.710Z,20.93
2023-04-20T02:21:51.600Z,20.78
2023-04-20T02:22:54.263Z,20.14
2023-04-20T02:23:57.025Z,18.94
2023-04-20T02:24:59.692Z,17.03
2023-04-20T02:26:02.383Z,16.47
2023-04-20T02:27:04.928Z,17.19
2023-04-20T02:28:07.610Z,16.60
2023-04-20T02:29:10.280Z,20.52
2023-04-20T02:30:12.701Z,20.04
2023-04-20T02:31:15.575Z,18.73
2023-04-20T02:32:19.323Z,17.52
2023-04-20T02:33:21.978Z,17.30
2023-04-20T02:34:24.648Z,15.15
2023-04-20T02:35:28.047Z,17.52
2023-04-20T02:36:30.808Z,16.99
2023-04-20T02:37:33.581Z,14.87
2023-04-20T02:38:36.548Z,14.77
2023-04-20T02:39:39.228Z,14.08
2023-04-20T02:40:42.095Z,15.42
2023-04-20T02:41:45.074Z,14.74
2023-04-20T02:42:48.088Z,15.99
2023-04-20T02:43:51.479Z,15.75
2023-04-20T02:44:54.213Z,15.25
2023-04-20T02:45:57.186Z,16.96
2023-04-20T02:47:00.109Z,15.58
2023-04-20T02:48:02.998Z,14.92
2023-04-20T02:49:06.122Z,13.81
2023-04-20T02:50:08.997Z,16.67
2023-04-20T02:51:11.666Z,18.92
2023-04-20T02:52:14.253Z,14.54
2023-04-20T02:53:16.906Z,18.54
2023-04-20T02:54:20.872Z,18.72
2023-04-20T02:55:23.383Z,17.05
2023-04-20T02:56:25.934Z,19.50
2023-04-20T02:57:28.924Z,20.14
2023-04-20T02:58:31.795Z,24.96
2023-04-20T02:59:34.931Z,20.68
2023-04-20T03:00:37.749Z,17.17
2023-04-20T03:01:40.669Z,14.34
2023-04-20T03:02:43.615Z,14.72
2023-04-20T03:03:46.772Z,20.06
2023-04-20T03:04:49.905Z,16.79
2023-04-20T03:05:52.835Z,17.30
2023-04-20T03:06:55.509Z,19.67
2023-04-20T03:07:58.173Z,20.44
2023-04-20T03:09:00.748Z,22.44
2023-04-20T03:10:04.852Z,16.33
2023-04-20T03:11:07.518Z,17.60
2023-04-20T03:12:10.188Z,19.80
2023-04-20T03:13:13.055Z,15.20
2023-04-20T03:14:15.931Z,14.35
2023-04-20T03:15:19.210Z,13.78
2023-04-20T03:16:21.934Z,14.60
2023-04-20T03:17:24.614Z,16.99
2023-04-20T03:18:27.436Z,15.25
2023-04-20T03:19:30.301Z,15.33
2023-04-20T03:20:33.076Z,21.09
2023-04-20T03:21:35.550Z,21.84
2023-04-20T03:22:38.222Z,17.66
2023-04-20T03:23:40.982Z,22.36
2023-04-20T03:24:43.866Z,15.02
2023-04-20T03:25:46.427Z,17.73
2023-04-20T03:26:49.096Z,18.76
2023-04-20T03:27:51.768Z,19.49
2023-04-20T03:28:54.339Z,18.75
2023-04-20T03:29:57.102Z,24.19
2023-04-20T03:30:59.770Z,18.57
2023-04-20T03:32:02.620Z,17.87
2023-04-20T03:33:05.457Z,23.26
2023-04-20T03:34:08.089Z,18.42
2023-04-20T03:35:10.763Z,25.82
2023-04-20T03:36:13.544Z,26.39
2023-04-20T03:37:16.411Z,29.48
2023-04-20T03:38:18.987Z,23.33
2023-04-20T03:39:21.847Z,21.66
2023-04-20T03:40:24.524Z,17.19
2023-04-20T03:41:27.199Z,19.90
2023-04-20T03:42:29.756Z,24.30
2023-04-20T03:43:32.634Z,18.60
2023-04-20T03:44:35.204Z,21.84
2023-04-20T03:45:38.113Z,21.68
2023-04-20T03:46:41.149Z,23.25
2023-04-20T03:47:43.958Z,25.78
2023-04-20T03:48:46.609Z,21.02
2023-04-20T03:49:49.159Z,22.93
2023-04-20T03:52:08.229Z,25.55
2023-04-20T03:53:10.820Z,25.60
2023-04-20T03:54:13.550Z,22.36
2023-04-20T03:55:16.127Z,23.62
2023-04-20T03:56:18.799Z,24.73
2023-04-20T03:59:45.453Z,23.40
2023-04-20T04:00:48.120Z,25.85
2023-04-20T04:01:50.980Z,21.92
2023-04-20T04:02:53.627Z,25.45
2023-04-20T04:03:56.523Z,23.88
2023-04-20T04:04:59.414Z,26.45
2023-04-20T04:06:02.088Z,26.41
2023-04-20T04:07:04.753Z,28.97
2023-04-20T04:08:07.424Z,22.55
2023-04-20T04:09:10.096Z,23.20
2023-04-20T04:10:12.784Z,23.28
2023-04-20T04:11:15.646Z,28.08
2023-04-20T04:12:18.520Z,24.12
2023-04-20T04:13:21.697Z,22.74
2023-04-20T04:14:24.575Z,25.12
2023-04-20T04:15:27.437Z,26.86
2023-04-20T04:16:30.360Z,23.38
2023-04-20T04:17:33.120Z,24.90
2023-04-20T04:18:36.070Z,23.07
2023-04-20T04:20:46.823Z,26.58
2023-04-20T04:26:33.563Z,26.93
2023-04-20T04:27:36.128Z,28.82
2023-04-20T04:31:10.678Z,27.22
2023-04-20T04:32:13.332Z,23.22
2023-04-20T04:34:38.045Z,26.32
2023-04-20T04:35:41.915Z,22.76
2023-04-20T04:36:44.525Z,25.38
2023-04-20T04:37:47.163Z,25.95
2023-04-20T04:38:49.831Z,26.75
2023-04-20T04:39:52.611Z,26.18
2023-04-20T04:40:55.283Z,27.28
2023-04-20T04:41:57.899Z,21.47
2023-04-20T04:43:00.418Z,28.97
2023-04-20T04:44:03.082Z,27.53
2023-04-20T04:45:05.790Z,25.12
2023-04-20T04:46:08.568Z,26.49
2023-04-20T04:47:11.194Z,27.52
2023-04-20T04:48:13.879Z,30.20
2023-04-20T04:49:16.989Z,22.53
2023-04-20T04:50:19.723Z,23.91
2023-04-20T04:51:22.395Z,31.33
2023-04-20T04:52:25.057Z,30.00
2023-04-20T04:53:27.724Z,29.35
2023-04-20T04:54:30.405Z,37.78
2023-04-20T04:55:33.579Z,31.87
2023-04-20T04:56:36.456Z,26.33
2023-04-20T04:57:39.065Z,21.11
2023-04-20T04:58:41.693Z,21.72
2023-04-20T04:59:44.563Z,25.77
2023-04-20T05:00:47.184Z,27.02
2023-04-20T05:01:50.282Z,23.22
2023-04-20T05:02:53.107Z,33.42
2023-04-20T05:03:56.001Z,26.58
2023-04-20T05:04:58.750Z,28.45
2023-04-20T05:06:01.738Z,22.37
2023-04-20T05:07:04.726Z,29.36
2023-04-20T05:08:07.357Z,25.15
2023-04-20T05:09:10.035Z,23.23
2023-04-20T05:10:15.112Z,27.34
2023-04-20T05:11:17.212Z,23.06
2023-04-20T05:12:19.897Z,19.86
2023-04-20T05:13:22.653Z,22.83
2023-04-20T05:14:25.421Z,23.37
2023-04-20T05:15:28.199Z,21.89
2023-04-20T05:16:31.153Z,21.03
2023-04-20T05:17:33.966Z,24.55
2023-04-20T05:18:36.821Z,22.70
2023-04-20T05:19:39.396Z,26.95
2023-04-20T05:20:42.062Z,26.77
2023-04-20T05:21:57.133Z,22.98
2023-04-20T05:22:59.806Z,22.81
2023-04-20T05:24:02.473Z,28.48
2023-04-20T05:25:05.130Z,26.67
2023-04-20T05:26:07.799Z,23.61
2023-04-20T05:27:10.569Z,21.18
2023-04-20T05:28:13.247Z,19.53
2023-04-20T05:29:16.373Z,18.38
2023-04-20T05:30:21.912Z,21.15
2023-04-20T05:31:23.346Z,24.44
2023-04-20T05:32:26.184Z,16.98
2023-04-20T05:33:28.843Z,22.75
2023-04-20T05:34:31.414Z,19.33
2023-04-20T05:35:34.080Z,17.99
2023-04-20T05:36:36.746Z,21.19
2023-04-20T05:37:39.736Z,18.73
2023-04-20T05:38:42.501Z,18.42
2023-04-20T05:39:45.177Z,20.85
2023-04-20T05:40:47.741Z,18.88
2023-04-20T05:41:50.299Z,17.02
2023-04-20T05:42:53.183Z,16.99
2023-04-20T05:43:55.853Z,17.80
2023-04-20T05:44:58.728Z,16.54
2023-04-20T05:46:01.445Z,18.38
2023-04-20T05:47:04.061Z,16.78
2023-04-20T05:48:06.904Z,17.52
2023-04-20T05:49:09.712Z,22.43
2023-04-20T05:50:12.388Z,19.61
2023-04-20T05:51:14.956Z,19.59
2023-04-20T05:52:17.833Z,15.39
2023-04-20T05:53:20.692Z,18.23
2023-04-20T05:54:23.569Z,14.92
2023-04-20T05:55:26.552Z,16.65
2023-04-20T05:56:29.327Z,17.92
2023-04-20T05:57:32.187Z,17.18
2023-04-20T05:58:34.976Z,19.00
2023-04-20T05:59:37.644Z,19.47
2023-04-20T06:00:40.337Z,16.48
2023-04-20T06:01:42.877Z,15.22
2023-04-20T06:02:45.758Z,17.58
2023-04-20T06:03:48.886Z,18.13
2023-04-20T06:04:52.152Z,17.46
2023-04-20T06:05:54.903Z,17.28
2023-04-20T06:06:57.772Z,17.17
2023-04-20T06:08:00.645Z,19.46
2023-04-20T06:09:03.534Z,20.73
2023-04-20T06:10:06.206Z,19.97
2023-04-20T06:11:08.957Z,18.49
2023-04-20T06:12:11.846Z,19.06
2023-04-20T06:13:14.605Z,16.00
2023-04-20T06:14:17.587Z,16.94
2023-04-20T06:15:20.254Z,16.97
2023-04-20T06:16:22.959Z,18.29
2023-04-20T06:17:25.822Z,18.41
2023-04-20T06:18:28.574Z,20.34
2023-04-20T06:19:31.142Z,22.91
2023-04-20T06:20:33.812Z,31.02
2023-04-20T06:21:36.472Z,20.37
2023-04-20T06:22:39.141Z,19.08
2023-04-20T06:23:41.714Z,19.11
2023-04-20T06:24:44.385Z,18.98
2023-04-20T06:25:47.261Z,18.46
2023-04-20T06:26:49.931Z,21.08
2023-04-20T06:27:53.318Z,21.31
2023-04-20T06:28:56.481Z,22.34
2023-04-20T06:29:59.477Z,19.03
2023-04-20T06:31:02.092Z,20.43
2023-04-20T06:32:04.712Z,19.62
2023-04-20T06:33:08.048Z,24.19
2023-04-20T06:34:11.793Z,19.96
2023-04-20T06:35:14.675Z,18.82
2023-04-20T06:36:17.590Z,21.89
2023-04-20T06:37:20.211Z,21.52
2023-04-20T06:38:22.877Z,20.42
2023-04-20T06:39:25.703Z,22.50
2023-04-20T06:40:28.375Z,23.28
2023-04-20T06:41:31.308Z,23.65
2023-04-20T06:42:34.174Z,22.01
2023-04-20T06:43:36.843Z,18.59
2023-04-20T06:44:39.594Z,17.78
2023-04-20T06:45:42.484Z,21.26
2023-04-20T06:46:45.409Z,21.70
2023-04-20T06:47:48.335Z,22.52
2023-04-20T06:48:53.125Z,20.01
2023-04-20T06:49:55.633Z,21.33
2023-04-20T06:50:58.287Z,19.50
2023-04-20T06:52:01.175Z,24.12
2023-04-20T06:53:03.856Z,20.97
2023-04-20T06:54:06.507Z,26.05
2023-04-20T06:55:09.386Z,22.01
2023-04-20T06:56:12.157Z,22.15
2023-04-20T06:57:15.217Z,17.88
2023-04-20T06:58:18.015Z,22.85
2023-04-20T06:59:20.903Z,23.35
2023-04-20T07:00:23.358Z,20.42
2023-04-20T07:01:26.195Z,20.83
2023-04-20T07:02:29.397Z,19.10
2023-04-20T07:03:32.827Z,20.98
2023-04-20T07:04:36.267Z,23.45
2023-04-20T07:05:39.427Z,18.52
2023-04-20T07:06:42.334Z,23.41
2023-04-20T07:07:45.012Z,24.37
2023-04-20T07:08:47.665Z,23.75
2023-04-20T07:09:50.462Z,24.04
2023-04-20T07:10:54.934Z,23.45
2023-04-20T07:11:57.737Z,25.63
2023-04-20T07:13:00.502Z,24.58
2023-04-20T07:14:03.984Z,27.07
2023-04-20T07:15:06.982Z,28.40
2023-04-20T07:16:10.349Z,27.78
2023-04-20T07:17:13.141Z,22.86
2023-04-20T07:18:16.299Z,22.77
2023-04-20T07:19:19.378Z,24.53
2023-04-20T07:20:22.571Z,29.86
2023-04-20T07:21:25.141Z,29.92
2023-04-20T07:22:28.025Z,21.35
2023-04-20T07:23:30.694Z,27.50
2023-04-20T07:24:33.367Z,22.72
2023-04-20T07:25:36.225Z,22.63
2023-04-20T07:26:39.303Z,24.66
2023-04-20T07:27:42.601Z,24.75
2023-04-20T07:28:45.483Z,31.55
2023-04-20T07:29:48.242Z,26.00
2023-04-20T07:30:50.915Z,23.08
2023-04-20T07:31:53.502Z,24.12
2023-04-20T07:32:56.394Z,20.73
2023-04-20T07:33:59.516Z,23.97
2023-04-20T07:35:02.393Z,26.65
2023-04-20T07:36:05.575Z,28.25
2023-04-20T07:37:08.243Z,20.59
2023-04-20T07:38:11.249Z,21.77
2023-04-20T07:39:14.207Z,25.02
2023-04-20T07:40:17.181Z,24.75
2023-04-20T07:41:20.056Z,20.82
2023-04-20T07:42:23.336Z,28.43
2023-04-20T07:43:26.948Z,25.86
2023-04-20T07:44:29.716Z,24.52
2023-04-20T07:45:33.038Z,23.38
2023-04-20T07:46:36.177Z,25.98
2023-04-20T07:47:39.184Z,28.55
2023-04-20T07:48:42.431Z,25.53
2023-04-20T07:49:45.633Z,26.71
2023-04-20T07:50:48.699Z,25.82
2023-04-20T07:51:51.494Z,22.26
2023-04-20T07:52:54.203Z,22.01
2023-04-20T07:53:57.212Z,23.51
2023-04-20T07:55:00.351Z,23.95
2023-04-20T07:56:02.885Z,24.70
2023-04-20T07:57:05.946Z,25.79
2023-04-20T07:58:08.723Z,21.97
2023-04-20T07:59:11.795Z,23.96
2023-04-20T08:00:14.949Z,23.42
2023-04-20T08:01:17.973Z,25.94
2023-04-20T08:02:21.415Z,23.50
2023-04-20T08:03:24.422Z,25.55
2023-04-20T08:04:27.760Z,26.40
2023-04-20T08:05:30.747Z,22.41
2023-04-20T08:06:33.749Z,25.57
2023-04-20T08:07:36.388Z,26.23
2023-04-20T08:08:39.022Z,22.92
2023-04-20T08:09:41.686Z,30.52
2023-04-20T08:10:44.651Z,26.82
2023-04-20T08:11:47.820Z,26.23
2023-04-20T08:12:52.718Z,26.17
2023-04-20T08:13:57.174Z,23.72
2023-04-20T08:15:00.058Z,23.71
2023-04-20T08:16:03.186Z,27.78
2023-04-20T08:17:06.511Z,31.01
2023-04-20T08:18:10.035Z,23.38
2023-04-20T08:20:17.783Z,27.27
2023-04-20T08:21:21.391Z,27.56
2023-04-20T08:22:24.645Z,25.05
2023-04-20T08:23:27.742Z,20.12
2023-04-20T08:24:31.031Z,27.48
2023-04-20T08:25:34.621Z,29.85
2023-04-20T08:26:37.593Z,27.64
2023-04-20T08:27:40.675Z,28.97
2023-04-20T08:28:43.759Z,25.15
2023-04-20T08:29:46.724Z,23.58
2023-04-20T08:30:49.912Z,23.11
2023-04-20T08:31:53.134Z,22.28
2023-04-20T08:32:56.036Z,22.37
2023-04-20T08:33:59.163Z,29.81
2023-04-20T08:35:02.133Z,26.22
2023-04-20T08:36:05.219Z,24.96
2023-04-20T08:37:07.973Z,26.65
2023-04-20T08:38:13.814Z,24.01
2023-04-20T08:39:15.672Z,22.75
2023-04-20T08:40:19.061Z,24.20
2023-04-20T08:41:22.554Z,24.05
2023-04-20T08:42:25.636Z,23.62
2023-04-20T08:43:28.624Z,23.28
2023-04-20T08:44:31.480Z,25.75
2023-04-20T08:45:34.150Z,20.71
2023-04-20T08:46:37.334Z,19.18
2023-04-20T08:47:40.334Z,21.96
2023-04-20T08:48:43.597Z,20.12
2023-04-20T08:49:47.083Z,24.27
2023-04-20T08:50:50.062Z,24.26
2023-04-20T08:51:53.255Z,24.31
2023-04-20T08:52:55.919Z,22.88
2023-04-20T08:53:58.993Z,24.35
2023-04-20T08:55:02.097Z,24.89
2023-04-20T08:56:04.557Z,21.98
2023-04-20T08:57:07.435Z,22.24
2023-04-20T08:58:10.092Z,22.19
2023-04-20T08:59:12.941Z,23.12
2023-04-20T09:00:15.536Z,24.33
2023-04-20T09:01:22.647Z,22.86
2023-04-20T09:02:22.759Z,28.94
2023-04-20T09:03:25.913Z,27.10
2023-04-20T09:04:28.886Z,24.14
2023-04-20T09:05:32.015Z,24.52
2023-04-20T09:06:34.911Z,24.05
2023-04-20T09:07:39.816Z,23.97
2023-04-20T09:08:42.819Z,22.81
2023-04-20T09:09:45.788Z,24.21
2023-04-20T09:10:48.575Z,20.87
2023-04-20T09:11:51.537Z,21.38
2023-04-20T09:12:54.415Z,22.62
2023-04-20T09:13:57.423Z,23.61
2023-04-20T09:15:00.019Z,24.53
2023-04-20T09:16:03.068Z,25.61
2023-04-20T09:17:05.931Z,22.75
2023-04-20T09:18:08.942Z,20.51
2023-04-20T09:19:13.940Z,21.95
2023-04-20T09:20:18.131Z,25.16
2023-04-20T09:21:21.312Z,18.55
2023-04-20T09:22:23.891Z,23.20
2023-04-20T09:23:27.251Z,20.15
2023-04-20T09:24:30.348Z,23.98
2023-04-20T09:25:32.934Z,25.99
2023-04-20T09:26:35.684Z,26.03
2023-04-20T09:27:38.881Z,19.13
2023-04-20T09:28:41.551Z,20.29
2023-04-20T09:29:44.328Z,18.77
2023-04-20T09:30:46.987Z,19.55
2023-04-20T09:31:49.983Z,23.28
2023-04-20T09:32:52.869Z,19.38
2023-04-20T09:33:56.950Z,17.31
2023-04-20T09:35:00.007Z,22.71
2023-04-20T09:36:02.800Z,24.64
2023-04-20T09:37:07.314Z,22.88
2023-04-20T09:38:10.170Z,19.87
2023-04-20T09:39:13.656Z,21.42
2023-04-20T09:40:17.043Z,21.82
2023-04-20T09:41:20.334Z,21.82
2023-04-20T09:42:23.305Z,21.74
2023-04-20T09:43:26.284Z,18.57
2023-04-20T09:44:29.460Z,21.98
2023-04-20T09:45:32.356Z,24.85
2023-04-20T09:46:35.402Z,21.38
2023-04-20T09:47:38.143Z,19.59
2023-04-20T09:48:40.993Z,26.85
2023-04-20T09:49:43.548Z,24.99
2023-04-20T09:50:50.032Z,25.11
2023-04-20T09:51:50.530Z,23.28
2023-04-20T09:52:53.403Z,21.60
2023-04-20T09:53:56.073Z,21.54
2023-04-20T09:54:59.370Z,20.73
2023-04-20T09:56:02.031Z,18.92
2023-04-20T09:57:04.989Z,20.53
2023-04-20T09:58:07.864Z,18.54
2023-04-20T09:59:11.144Z,23.76
2023-04-20T10:00:17.517Z,28.04
2023-04-20T10:01:20.257Z,26.01
2023-04-20T10:02:22.998Z,27.04
2023-04-20T10:03:26.046Z,22.09
2023-04-20T10:04:28.882Z,24.50
2023-04-20T10:05:31.769Z,22.22
2023-04-20T10:06:35.093Z,26.51
2023-04-20T10:07:43.709Z,22.76
2023-04-20T10:08:46.427Z,20.83
2023-04-20T10:09:49.330Z,20.67
2023-04-20T10:10:52.219Z,22.68
2023-04-20T10:11:56.209Z,21.85
2023-04-20T10:12:59.590Z,21.56
2023-04-20T10:14:08.884Z,21.03
2023-04-20T10:15:11.812Z,22.17
2023-04-20T10:16:14.992Z,20.01
2023-04-20T10:17:17.730Z,21.86
2023-04-20T10:18:21.023Z,18.79
2023-04-20T10:19:23.890Z,24.16
2023-04-20T10:20:26.773Z,23.48
2023-04-20T10:21:29.633Z,18.38
2023-04-20T10:22:32.429Z,16.27
2023-04-20T10:23:35.203Z,22.58
2023-04-20T10:24:38.401Z,23.09
2023-04-20T10:25:40.948Z,21.08
2023-04-20T10:26:44.134Z,21.88
2023-04-20T10:27:46.589Z,28.43
2023-04-20T10:28:49.352Z,27.30
2023-04-20T10:29:51.934Z,26.81
2023-04-20T10:30:54.903Z,26.83
2023-04-20T10:31:57.882Z,29.28
2023-04-20T10:33:00.610Z,28.53
2023-04-20T10:34:03.406Z,27.72
2023-04-20T10:35:08.818Z,28.42
2023-04-20T10:36:11.514Z,27.73
2023-04-20T10:37:14.837Z,26.88
2023-04-20T10:38:17.266Z,24.00
2023-04-20T10:39:20.200Z,22.87
2023-04-20T10:40:22.909Z,25.76
2023-04-20T10:41:26.023Z,23.72
2023-04-20T10:42:29.641Z,22.07
2023-04-20T10:43:32.561Z,22.06
2023-04-20T10:44:35.048Z,20.28
2023-04-20T10:45:37.895Z,21.56
2023-04-20T10:46:40.831Z,21.52
2023-04-20T10:47:43.900Z,20.99
2023-04-20T10:48:46.735Z,22.46
2023-04-20T10:49:49.813Z,22.28
2023-04-20T10:50:52.576Z,16.92
2023-04-20T10:51:58.636Z,25.46
2023-04-20T10:53:01.395Z,17.94
2023-04-20T10:54:04.278Z,21.01
2023-04-20T10:55:07.058Z,23.12
2023-04-20T10:56:09.923Z,20.14
2023-04-20T10:57:12.916Z,20.29
2023-04-20T10:58:16.194Z,20.36
2023-04-20T10:59:19.164Z,16.60
2023-04-20T11:00:22.160Z,16.41
2023-04-20T11:01:25.045Z,19.72
2023-04-20T11:02:27.931Z,21.09
2023-04-20T11:03:31.202Z,18.18
2023-04-20T11:04:34.123Z,17.55
2023-04-20T11:05:36.822Z,17.55
2023-04-20T11:06:39.594Z,21.29
2023-04-20T11:07:42.567Z,20.86
2023-04-20T11:08:45.546Z,17.63
2023-04-20T11:09:48.327Z,22.14
2023-04-20T11:10:51.014Z,22.18
2023-04-20T11:11:53.872Z,19.67
2023-04-20T11:12:57.041Z,18.98
2023-04-20T11:14:01.952Z,18.28
2023-04-20T11:15:04.652Z,19.97
2023-04-20T11:16:07.864Z,22.26
2023-04-20T11:17:10.893Z,21.69
2023-04-20T11:18:13.686Z,26.22
2023-04-20T11:19:17.016Z,23.42
2023-04-20T11:20:22.044Z,20.52
2023-04-20T11:21:24.747Z,22.31
2023-04-20T11:22:27.627Z,21.48
2023-04-20T11:23:30.905Z,17.78
2023-04-20T11:24:34.561Z,20.11
2023-04-20T11:25:37.479Z,19.52
2023-04-20T11:26:40.358Z,19.02
2023-04-20T11:27:43.157Z,18.05
2023-04-20T11:28:45.794Z,17.75
2023-04-20T11:29:48.672Z,18.61
2023-04-20T11:30:51.851Z,23.62
2023-04-20T11:31:54.844Z,19.45
2023-04-20T11:32:57.685Z,18.88
2023-04-20T11:34:00.476Z,18.95
2023-04-20T11:35:06.836Z,20.48
2023-04-20T11:36:07.674Z,20.44
2023-04-20T11:37:10.713Z,22.48
2023-04-20T11:38:13.722Z,19.60
2023-04-20T11:39:16.770Z,22.48
2023-04-20T11:40:28.429Z,21.82
2023-04-20T11:41:30.790Z,22.71
2023-04-20T11:42:33.827Z,22.48
2023-04-20T11:43:36.694Z,23.34
2023-04-20T11:44:39.682Z,23.28
2023-04-20T11:45:42.462Z,21.53
2023-04-20T11:46:45.427Z,20.44
2023-04-20T11:47:48.322Z,23.21
2023-04-20T11:48:51.483Z,25.51
2023-04-20T11:49:54.341Z,18.48
2023-04-20T11:50:57.330Z,21.62
2023-04-20T11:52:00.628Z,20.13
2023-04-20T11:53:03.382Z,22.31
2023-04-20T11:54:06.483Z,24.25
2023-04-20T11:55:09.233Z,24.75
2023-04-20T11:56:12.326Z,27.66
2023-04-20T11:57:15.490Z,25.04
2023-04-20T11:58:24.306Z,24.92
2023-04-20T11:59:27.397Z,21.09
2023-04-20T12:00:35.604Z,23.35
2023-04-20T12:01:38.663Z,26.44
2023-04-20T12:02:41.772Z,25.09
2023-04-20T12:03:47.504Z,23.51
2023-04-20T12:04:49.276Z,21.16
2023-04-20T12:05:52.090Z,23.02
2023-04-20T12:06:55.402Z,22.78
2023-04-20T12:07:58.163Z,19.31
2023-04-20T12:09:01.244Z,19.34
2023-04-20T12:10:03.916Z,23.69
2023-04-20T12:11:07.093Z,20.87
2023-04-20T12:12:09.979Z,20.52
2023-04-20T12:13:12.758Z,21.14
2023-04-20T12:14:15.621Z,18.23
2023-04-20T12:15:18.498Z,20.66
2023-04-20T12:16:21.405Z,20.18
2023-04-20T12:17:24.574Z,21.77
2023-04-20T12:18:27.325Z,22.29
2023-04-20T12:19:30.112Z,18.86
2023-04-20T12:20:33.293Z,18.91
2023-04-20T12:21:36.048Z,20.68
2023-04-20T12:22:39.248Z,21.05
2023-04-20T12:23:44.002Z,22.17
2023-04-20T12:24:46.819Z,21.33
2023-04-20T12:25:49.503Z,25.65
2023-04-20T12:26:52.388Z,36.37
2023-04-20T12:27:55.347Z,38.54
2023-04-20T12:28:58.434Z,34.15
2023-04-20T12:30:01.398Z,57.65
2023-04-20T12:31:04.516Z,72.86
2023-04-20T12:32:11.021Z,37.70
2023-04-20T12:33:13.880Z,53.79
2023-04-20T12:34:17.481Z,60.72
2023-04-20T12:35:20.318Z,32.45
2023-04-20T12:36:23.053Z,36.57
2023-04-20T12:37:26.134Z,74.12
2023-04-20T12:38:29.207Z,38.10
2023-04-20T12:39:31.982Z,33.77
2023-04-20T12:40:35.273Z,31.77
2023-04-20T12:41:38.142Z,33.49
2023-04-20T12:42:40.816Z,33.24
2023-04-20T12:43:43.690Z,27.58
2023-04-20T12:44:46.579Z,25.44
2023-04-20T12:45:49.233Z,36.98
2023-04-20T12:46:52.024Z,28.18
2023-04-20T12:47:56.745Z,45.40
2023-04-20T12:48:59.903Z,43.53
2023-04-20T12:50:02.789Z,49.66
2023-04-20T12:51:05.658Z,38.76
2023-04-20T12:52:08.533Z,27.39
2023-04-20T12:53:11.403Z,21.93
2023-04-20T12:54:14.275Z,31.13
2023-04-20T12:55:17.059Z,34.48
2023-04-20T12:56:19.724Z,29.42
2023-04-20T12:57:22.490Z,22.95
2023-04-20T12:58:25.566Z,19.52
2023-04-20T12:59:28.648Z,23.08
2023-04-20T13:00:31.521Z,23.96
2023-04-20T13:01:34.384Z,27.06
2023-04-20T13:02:37.233Z,33.72
2023-04-20T13:03:40.258Z,34.25
2023-04-20T13:04:43.458Z,46.73
2023-04-20T13:05:47.913Z,40.36
2023-04-20T13:06:50.923Z,29.05
2023-04-20T13:07:54.014Z,29.43
2023-04-20T13:08:56.782Z,29.91
2023-04-20T13:09:59.852Z,31.48
2023-04-20T13:11:02.827Z,27.18
2023-04-20T13:12:08.474Z,24.78
2023-04-20T13:13:11.554Z,21.73
2023-04-20T13:14:14.329Z,26.20
2023-04-20T13:15:25.368Z,24.72
2023-04-20T13:16:23.257Z,24.52
2023-04-20T13:17:25.943Z,17.84
2023-04-20T13:18:28.905Z,20.92
2023-04-20T13:19:31.662Z,18.74
2023-04-20T13:21:50.531Z,18.65
2023-04-20T13:22:57.595Z,21.04
2023-04-20T13:23:58.418Z,18.67
2023-04-20T13:25:01.199Z,23.00
2023-04-20T13:26:04.060Z,24.35
2023-04-20T13:27:06.939Z,22.98
2023-04-20T13:28:09.713Z,20.19
2023-04-20T13:29:12.690Z,24.02
2023-04-20T13:30:15.562Z,25.55
2023-04-20T13:31:18.989Z,21.12
2023-04-20T13:32:21.834Z,18.82
2023-04-20T13:33:24.598Z,19.92
2023-04-20T13:34:27.378Z,17.39
2023-04-20T13:35:30.446Z,23.94
2023-04-20T13:36:33.220Z,20.65
2023-04-20T13:40:05.297Z,20.24
2023-04-20T13:43:40.542Z,18.33
2023-04-20T13:44:43.243Z,20.40
2023-04-20T13:45:45.946Z,21.77
2023-04-20T13:46:48.677Z,26.48
2023-04-20T13:47:51.696Z,17.78
2023-04-20T13:48:54.617Z,20.54
2023-04-20T13:49:57.283Z,19.92
2023-04-20T13:50:59.946Z,23.36
2023-04-20T13:52:02.842Z,23.39